Terminal Aerodrome Forecast
Issued by NWS Pueblo, CO

Home | Current Version | Previous Version | Text Only | Print | Product List | Glossary On
Versions: 1 2 3 4 5 6 7 8 9 10 11 12 13 14 15 16 17 18 19 20 21 22 23 24 25 26 27 28 29 30 31 32 33 34 35 36 37 38 39 40 41 42 43 44 45 46 47 48 49 50
000
FTUS45 KPUB 222202 AAC
TAFPUB
TAF AMD
KPUB 222202Z 2222/2318 13015KT P6SM SCT050 SCT120
     FM230000 14015KT P6SM VCTS SCT040CB BKN120
     FM230200 10008KT P6SM SCT030 BKN120
     FM230600 04007KT P6SM SCT030 BKN120
     FM231100 VRB04KT P6SM SCT010 BKN200=

USA.gov is the U.S. government's official web portal to all federal, state and local government web resources and services.